createdAt,value
2023-03-07T00:01:42.082Z,4.33
2023-03-07T00:06:43.896Z,4.03
2023-03-07T00:11:45.747Z,4.33
2023-03-07T00:16:51.359Z,4.23
2023-03-07T00:21:53.527Z,3.90
2023-03-07T00:26:55.318Z,4.97
2023-03-07T00:31:57.269Z,4.73
2023-03-07T00:36:59.331Z,5.13
2023-03-07T00:42:01.340Z,5.23
2023-03-07T00:47:03.647Z,6.40
2023-03-07T00:52:05.588Z,7.57
2023-03-07T00:57:07.579Z,11.07
2023-03-07T01:02:09.686Z,11.07
2023-03-07T01:07:11.721Z,11.60
2023-03-07T01:12:13.647Z,11.47
2023-03-07T01:17:15.527Z,10.77
2023-03-07T01:22:17.448Z,11.83
2023-03-07T01:27:19.461Z,10.40
2023-03-07T01:32:21.572Z,10.77
2023-03-07T01:37:23.778Z,10.63
2023-03-07T01:42:30.825Z,11.40
2023-03-07T01:47:34.486Z,12.00
2023-03-07T01:52:41.240Z,12.77
2023-03-07T01:57:46.971Z,12.40
2023-03-07T02:03:14.678Z,13.17
2023-03-07T02:08:20.251Z,12.83
2023-03-07T02:13:22.043Z,12.87
2023-03-07T02:18:27.304Z,13.13
2023-03-07T02:23:29.828Z,13.73
2023-03-07T02:28:32.498Z,12.87
2023-03-07T02:33:34.898Z,13.33
2023-03-07T02:38:44.518Z,13.63
2023-03-07T02:43:47.097Z,13.03
2023-03-07T02:48:49.270Z,13.70
2023-03-07T02:53:52.448Z,13.97
2023-03-07T02:58:54.535Z,12.93
2023-03-07T03:03:56.634Z,12.50
2023-03-07T03:08:58.971Z,13.93
2023-03-07T03:14:01.583Z,13.33
2023-03-07T03:19:04.539Z,14.03
2023-03-07T03:24:07.732Z,13.37
2023-03-07T03:29:10.929Z,14.43
2023-03-07T03:34:13.313Z,13.70
2023-03-07T03:39:15.638Z,13.87
2023-03-07T03:44:22.365Z,14.43
2023-03-07T03:49:24.327Z,14.13
2023-03-07T03:54:29.146Z,13.57
2023-03-07T03:59:32.499Z,13.63
2023-03-07T04:04:35.735Z,14.50
2023-03-07T04:09:37.800Z,12.87
2023-03-07T04:14:41.061Z,13.03
2023-03-07T04:19:43.399Z,13.43
2023-03-07T04:24:45.383Z,13.17
2023-03-07T04:29:47.755Z,14.50
2023-03-07T04:34:54.343Z,13.17
2023-03-07T04:39:56.219Z,12.93
2023-03-07T04:44:58.526Z,13.77
2023-03-07T04:50:00.655Z,13.00
2023-03-07T04:55:03.294Z,12.63
2023-03-07T05:00:14.736Z,13.60
2023-03-07T05:05:17.624Z,13.27
2023-03-07T05:10:20.000Z,13.80
2023-03-07T05:15:21.974Z,13.00
2023-03-07T05:20:24.344Z,12.27
2023-03-07T05:25:26.297Z,13.23
2023-03-07T05:30:28.679Z,12.20
2023-03-07T05:35:30.820Z,13.13
2023-03-07T05:40:34.880Z,12.33
2023-03-07T05:45:37.567Z,12.40
2023-03-07T05:50:42.608Z,11.63
2023-03-07T05:55:45.532Z,10.40
2023-03-07T06:00:49.954Z,11.80
2023-03-07T06:05:53.643Z,12.37
2023-03-07T06:10:55.860Z,12.27
2023-03-07T06:15:58.950Z,9.83
2023-03-07T06:21:06.978Z,11.73
2023-03-07T06:26:14.025Z,13.70
2023-03-07T06:31:19.841Z,11.97
2023-03-07T06:36:22.368Z,13.27
2023-03-07T06:41:34.068Z,13.23
2023-03-07T06:46:38.608Z,12.20
2023-03-07T06:51:47.602Z,12.10
2023-03-07T06:56:51.669Z,11.87
2023-03-07T07:01:57.415Z,12.97
2023-03-07T07:06:59.894Z,12.93
2023-03-07T07:12:05.129Z,11.90
2023-03-07T07:17:09.081Z,14.30
2023-03-07T07:22:12.090Z,12.70
2023-03-07T07:27:14.320Z,12.23
2023-03-07T07:32:16.759Z,12.93
2023-03-07T07:37:19.446Z,12.23
2023-03-07T07:42:21.601Z,12.67
2023-03-07T07:47:39.901Z,13.10
2023-03-07T07:52:41.930Z,12.43
2023-03-07T07:57:44.063Z,12.07
2023-03-07T08:02:50.333Z,11.57
2023-03-07T08:07:52.438Z,11.47
2023-03-07T08:12:54.268Z,9.50
2023-03-07T08:17:56.383Z,9.47
2023-03-07T08:22:58.331Z,9.20
2023-03-07T08:28:03.131Z,8.93
2023-03-07T08:33:05.100Z,9.70
2023-03-07T08:38:06.936Z,8.80
2023-03-07T08:43:08.876Z,9.10
2023-03-07T08:48:10.936Z,10.23
2023-03-07T08:53:16.580Z,10.60
2023-03-07T08:58:18.469Z,10.00
2023-03-07T09:03:20.414Z,10.93
2023-03-07T09:08:22.279Z,9.37
2023-03-07T09:13:24.217Z,10.23
2023-03-07T09:18:26.101Z,10.07
2023-03-07T09:23:28.124Z,9.60
2023-03-07T09:28:30.088Z,9.77
2023-03-07T09:33:32.571Z,8.67
2023-03-07T09:38:34.768Z,8.93
2023-03-07T09:43:47.417Z,7.47
2023-03-07T09:49:15.541Z,6.77
2023-03-07T09:54:21.532Z,5.97
2023-03-07T09:59:43.365Z,4.57
2023-03-07T10:04:56.266Z,3.87
2023-03-07T10:10:05.377Z,3.80
2023-03-07T10:15:39.078Z,5.03
2023-03-07T10:20:59.697Z,4.00
2023-03-07T10:26:06.373Z,4.13
2023-03-07T10:31:24.247Z,2.60
2023-03-07T10:36:42.071Z,2.53
2023-03-07T10:41:43.857Z,2.90
2023-03-07T10:46:55.416Z,2.90
2023-03-07T10:52:26.062Z,2.93
2023-03-07T10:57:28.342Z,3.20
2023-03-07T11:02:32.039Z,3.20
2023-03-07T11:07:36.318Z,2.57
2023-03-07T11:12:46.258Z,2.93
2023-03-07T11:17:49.457Z,3.30
2023-03-07T11:23:13.507Z,3.30
2023-03-07T11:28:35.134Z,4.07
2023-03-07T11:33:39.287Z,4.30
2023-03-07T11:38:49.083Z,3.93
2023-03-07T11:44:00.039Z,3.60
2023-03-07T11:49:21.844Z,3.03
2023-03-07T11:54:37.131Z,3.53
2023-03-07T11:59:56.781Z,3.27
2023-03-07T12:05:36.508Z,3.83
2023-03-07T12:11:04.326Z,4.20
2023-03-07T12:16:24.219Z,3.83
2023-03-07T12:21:28.987Z,4.50
2023-03-07T12:26:50.430Z,4.27
2023-03-07T12:31:58.038Z,3.97
2023-03-07T12:37:09.297Z,3.33
2023-03-07T12:42:27.116Z,2.73
2023-03-07T12:47:57.168Z,3.70
2023-03-07T12:53:22.189Z,3.50
2023-03-07T12:58:50.994Z,3.53
2023-03-07T13:04:37.143Z,11.17
2023-03-07T13:09:43.368Z,13.93
2023-03-07T13:14:52.278Z,15.63
2023-03-07T13:19:55.847Z,9.40
2023-03-07T13:25:20.965Z,7.27
2023-03-07T13:30:30.226Z,7.57
2023-03-07T13:35:32.251Z,6.37
2023-03-07T13:40:37.026Z,4.80
2023-03-07T13:45:38.901Z,5.33
2023-03-07T13:51:01.009Z,5.47
2023-03-07T13:56:15.409Z,4.63
2023-03-07T14:01:24.643Z,4.37
2023-03-07T14:06:45.898Z,4.73
2023-03-07T14:12:09.736Z,4.83
2023-03-07T14:17:43.347Z,4.07
2023-03-07T14:23:13.295Z,4.10
2023-03-07T14:28:27.084Z,3.50
2023-03-07T14:33:34.079Z,3.13
2023-03-07T14:38:36.049Z,3.23
2023-03-07T14:44:06.248Z,2.63
2023-03-07T14:49:20.280Z,2.90
2023-03-07T14:54:26.811Z,4.30
2023-03-07T14:59:29.667Z,3.40
2023-03-07T15:04:33.429Z,3.30
2023-03-07T15:09:35.367Z,3.50
2023-03-07T15:14:44.556Z,3.10
2023-03-07T15:20:21.208Z,2.67
2023-03-07T15:25:25.874Z,3.50
2023-03-07T15:30:32.152Z,4.83
2023-03-07T15:35:34.103Z,6.50
2023-03-07T15:40:36.659Z,6.53
2023-03-07T15:45:40.720Z,10.53
2023-03-07T15:50:42.883Z,12.57
2023-03-07T15:55:46.710Z,11.77
2023-03-07T16:00:48.555Z,3.40
2023-03-07T16:05:50.833Z,2.27
2023-03-07T16:10:58.312Z,2.30
2023-03-07T16:16:03.473Z,3.30
2023-03-07T16:21:05.725Z,3.93
2023-03-07T16:26:12.142Z,4.40
2023-03-07T16:31:16.192Z,5.27
2023-03-07T16:36:18.319Z,8.90
2023-03-07T16:41:22.019Z,8.60
2023-03-07T16:46:24.463Z,7.97
2023-03-07T16:51:28.303Z,8.37
2023-03-07T16:56:34.759Z,9.63
2023-03-07T17:01:36.948Z,8.50
2023-03-07T17:06:39.870Z,6.33
2023-03-07T17:11:51.827Z,5.70
2023-03-07T17:16:53.915Z,6.30
2023-03-07T17:21:58.365Z,7.10
2023-03-07T17:27:03.460Z,6.27
2023-03-07T17:32:05.711Z,7.10
2023-03-07T17:37:08.109Z,8.97
2023-03-07T17:42:10.133Z,10.13
2023-03-07T17:47:11.907Z,10.53
2023-03-07T17:52:14.806Z,12.23
2023-03-07T17:57:17.039Z,10.97
2023-03-07T18:02:19.163Z,10.20
2023-03-07T18:07:21.839Z,9.43
2023-03-07T18:12:23.919Z,8.73
2023-03-07T18:17:26.953Z,9.80
2023-03-07T18:22:31.338Z,7.27
2023-03-07T18:27:33.818Z,8.10
2023-03-07T18:32:35.639Z,8.40
2023-03-07T18:37:37.776Z,8.13
2023-03-07T18:42:40.238Z,8.27
2023-03-07T18:47:42.196Z,11.07
2023-03-07T18:52:44.143Z,10.97
2023-03-07T18:57:45.986Z,11.83
2023-03-07T19:02:47.826Z,15.93
2023-03-07T19:07:49.650Z,15.37
2023-03-07T19:12:51.590Z,16.77
2023-03-07T19:17:53.723Z,16.80
2023-03-07T19:22:55.516Z,11.63
2023-03-07T19:27:57.347Z,13.83
2023-03-07T19:32:59.291Z,8.90
2023-03-07T19:38:01.313Z,8.17
2023-03-07T19:43:03.275Z,7.37
2023-03-07T19:48:06.073Z,7.90
2023-03-07T19:53:08.169Z,8.30
2023-03-07T19:58:10.114Z,9.93
2023-03-07T20:03:14.419Z,9.93
2023-03-07T20:08:16.762Z,10.57
2023-03-07T20:13:18.670Z,9.87
2023-03-07T20:18:20.481Z,12.17
2023-03-07T20:23:22.575Z,11.77
2023-03-07T20:28:24.387Z,15.33
2023-03-07T20:33:26.311Z,13.10
2023-03-07T20:38:28.248Z,14.00
2023-03-07T20:43:31.418Z,15.37
2023-03-07T20:48:34.460Z,14.33
2023-03-07T20:53:36.506Z,14.07
2023-03-07T20:58:39.158Z,14.57
2023-03-07T21:03:41.199Z,16.57
2023-03-07T21:08:43.529Z,15.23
2023-03-07T21:13:47.489Z,15.93
2023-03-07T21:18:49.980Z,17.47
2023-03-07T21:23:52.070Z,16.83
2023-03-07T21:28:54.795Z,17.40
2023-03-07T21:33:59.228Z,17.00
2023-03-07T21:39:04.236Z,18.20
2023-03-07T21:44:06.286Z,18.73
2023-03-07T21:49:08.653Z,17.23
2023-03-07T21:54:10.674Z,19.10
2023-03-07T21:59:12.546Z,19.47
2023-03-07T22:04:14.653Z,19.40
2023-03-07T22:09:16.584Z,19.47
2023-03-07T22:14:18.666Z,19.73
2023-03-07T22:19:20.500Z,20.97
2023-03-07T22:24:22.495Z,22.33
2023-03-07T22:29:24.426Z,22.57
2023-03-07T22:34:26.488Z,22.23
2023-03-07T22:39:28.433Z,21.03
2023-03-07T22:44:30.439Z,23.30
2023-03-07T22:49:32.567Z,20.47
2023-03-07T22:54:39.122Z,21.10
2023-03-07T22:59:40.878Z,22.00
2023-03-07T23:04:42.766Z,22.00
2023-03-07T23:09:44.767Z,20.30
2023-03-07T23:14:46.739Z,21.40
2023-03-07T23:19:51.323Z,21.23
2023-03-07T23:24:53.235Z,19.17
2023-03-07T23:29:55.494Z,20.53
2023-03-07T23:34:57.416Z,19.30
2023-03-07T23:40:00.777Z,19.47
2023-03-07T23:45:02.774Z,18.67
2023-03-07T23:50:07.539Z,18.77
2023-03-07T23:55:10.257Z,18.07
